createdAt,value
2022-11-06T00:00:09.998Z,10.73
2022-11-06T00:02:37.870Z,10.95
2022-11-06T00:05:24.702Z,10.18
2022-11-06T00:07:53.125Z,11.10
2022-11-06T00:10:20.704Z,12.93
2022-11-06T00:12:48.677Z,12.63
2022-11-06T00:15:16.537Z,12.50
2022-11-06T00:17:44.065Z,12.20
2022-11-06T00:20:11.638Z,12.05
2022-11-06T00:22:39.361Z,12.33
2022-11-06T00:25:07.375Z,12.52
2022-11-06T00:27:38.712Z,12.45
2022-11-06T00:30:07.512Z,12.55
2022-11-06T00:32:35.221Z,13.45
2022-11-06T00:35:02.684Z,13.77
2022-11-06T00:37:30.442Z,12.73
2022-11-06T00:39:59.520Z,14.57
2022-11-06T00:42:27.094Z,14.10
2022-11-06T00:44:54.923Z,14.05
2022-11-06T00:47:22.459Z,14.73
2022-11-06T00:49:49.945Z,14.87
2022-11-06T00:52:17.766Z,15.40
2022-11-06T00:54:45.260Z,16.25
2022-11-06T00:57:12.902Z,15.85
2022-11-06T00:59:41.673Z,15.47
2022-11-06T01:02:09.198Z,15.25
2022-11-06T01:04:36.899Z,13.93
2022-11-06T01:07:04.627Z,16.10
2022-11-06T01:09:32.999Z,15.50
2022-11-06T01:12:16.660Z,17.17
2022-11-06T01:14:45.369Z,15.48
2022-11-06T01:17:13.336Z,14.48
2022-11-06T01:19:40.944Z,14.55
2022-11-06T01:22:08.740Z,14.52
2022-11-06T01:24:36.287Z,14.60
2022-11-06T01:29:51.683Z,15.68
2022-11-06T01:32:19.290Z,14.75
2022-11-06T01:34:47.075Z,17.02
2022-11-06T01:37:15.236Z,16.20
2022-11-06T01:39:45.202Z,16.30
2022-11-06T01:42:14.126Z,15.60
2022-11-06T01:44:41.674Z,14.52
2022-11-06T01:47:18.207Z,15.35
2022-11-06T01:49:47.169Z,15.07
2022-11-06T01:52:16.517Z,15.20
2022-11-06T01:54:46.338Z,16.58
2022-11-06T01:57:14.090Z,14.45
2022-11-06T01:59:44.372Z,15.63
2022-11-06T02:02:13.207Z,16.60
2022-11-06T02:04:44.521Z,15.50
2022-11-06T02:07:12.659Z,15.32
2022-11-06T02:09:41.579Z,16.35
2022-11-06T02:12:15.315Z,17.60
2022-11-06T02:15:03.214Z,16.03
2022-11-06T02:17:40.359Z,15.80
2022-11-06T02:20:31.133Z,15.52
2022-11-06T02:23:23.828Z,15.75
2022-11-06T02:26:05.877Z,14.82
2022-11-06T02:28:42.779Z,14.13
2022-11-06T02:31:13.927Z,14.32
2022-11-06T02:33:48.933Z,14.05
2022-11-06T02:36:20.271Z,11.68
2022-11-06T02:38:51.658Z,11.75
2022-11-06T02:41:25.765Z,9.70
2022-11-06T02:43:56.147Z,11.27
2022-11-06T02:46:34.871Z,10.70
2022-11-06T02:49:08.721Z,10.95
2022-11-06T02:51:47.681Z,10.65
2022-11-06T02:54:16.317Z,9.93
2022-11-06T02:56:45.918Z,8.57
2022-11-06T02:59:36.398Z,8.50
2022-11-06T03:02:08.124Z,7.57
2022-11-06T03:04:39.763Z,6.75
2022-11-06T03:07:35.427Z,7.50
2022-11-06T03:10:05.135Z,6.85
2022-11-06T03:12:36.654Z,6.45
2022-11-06T03:15:24.582Z,5.25
2022-11-06T03:17:55.570Z,5.60
2022-11-06T03:20:37.532Z,5.87
2022-11-06T03:23:17.576Z,5.55
2022-11-06T03:25:54.371Z,5.05
2022-11-06T03:28:34.693Z,5.37
2022-11-06T03:31:03.650Z,4.68
2022-11-06T03:33:39.257Z,4.30
2022-11-06T03:36:47.379Z,5.62
2022-11-06T03:39:19.135Z,4.82
2022-11-06T03:42:01.530Z,4.40
2022-11-06T03:44:30.715Z,4.60
2022-11-06T03:47:04.261Z,4.20
2022-11-06T03:49:39.037Z,4.25
2022-11-06T03:52:11.541Z,4.12
2022-11-06T03:54:47.138Z,3.83
2022-11-06T03:57:22.759Z,4.00
2022-11-06T03:59:53.930Z,3.33
2022-11-06T04:02:23.402Z,3.62
2022-11-06T04:04:55.990Z,3.78
2022-11-06T04:07:27.148Z,3.90
2022-11-06T04:10:18.436Z,3.35
2022-11-06T04:13:06.385Z,3.37
2022-11-06T04:15:38.756Z,3.35
2022-11-06T04:18:18.963Z,3.35
2022-11-06T04:21:26.178Z,3.65
2022-11-06T04:24:54.324Z,3.65
2022-11-06T04:27:33.942Z,3.73
2022-11-06T04:30:08.480Z,3.45
2022-11-06T04:32:54.590Z,2.37
2022-11-06T04:35:42.362Z,3.22
2022-11-06T04:38:18.802Z,3.60
2022-11-06T04:41:12.717Z,2.90
2022-11-06T04:43:50.814Z,16.23
2022-11-06T04:46:25.603Z,4.62
2022-11-06T04:48:54.466Z,2.80
2022-11-06T04:51:26.669Z,3.08
2022-11-06T04:53:55.358Z,2.50
2022-11-06T04:56:29.399Z,2.80
2022-11-06T04:58:57.939Z,2.80
2022-11-06T05:01:25.827Z,2.55
2022-11-06T05:03:53.399Z,2.90
2022-11-06T05:06:23.550Z,2.90
2022-11-06T05:08:55.433Z,3.05
2022-11-06T05:11:23.414Z,2.42
2022-11-06T05:13:50.946Z,2.78
2022-11-06T05:16:18.533Z,2.70
2022-11-06T05:18:47.349Z,3.00
2022-11-06T05:21:33.677Z,3.05
2022-11-06T05:24:01.496Z,2.85
2022-11-06T05:26:28.959Z,2.75
2022-11-06T05:28:56.425Z,2.67
2022-11-06T05:31:25.042Z,2.80
2022-11-06T05:33:52.574Z,2.40
2022-11-06T05:36:20.085Z,2.83
2022-11-06T05:38:47.846Z,3.05
2022-11-06T05:41:15.431Z,8.15
2022-11-06T05:43:43.184Z,4.90
2022-11-06T05:46:29.574Z,3.22
2022-11-06T05:48:58.720Z,3.67
2022-11-06T05:51:26.482Z,5.15
2022-11-06T05:53:55.210Z,5.07
2022-11-06T05:56:22.918Z,4.47
2022-11-06T05:58:50.702Z,4.70
2022-11-06T06:01:18.449Z,5.90
2022-11-06T06:03:46.219Z,3.40
2022-11-06T06:06:13.854Z,5.00
2022-11-06T06:08:41.361Z,4.33
2022-11-06T06:11:09.136Z,3.05
2022-11-06T06:13:37.641Z,3.20
2022-11-06T06:16:05.356Z,3.12
2022-11-06T06:18:33.199Z,3.45
2022-11-06T06:21:00.730Z,3.37
2022-11-06T06:23:28.257Z,2.83
2022-11-06T06:25:56.995Z,3.10
2022-11-06T06:28:24.405Z,3.75
2022-11-06T06:30:54.748Z,2.75
2022-11-06T06:33:24.917Z,3.47
2022-11-06T06:35:52.338Z,3.75
2022-11-06T06:38:20.116Z,3.40
2022-11-06T06:40:47.925Z,3.00
2022-11-06T06:43:15.458Z,3.25
2022-11-06T06:45:42.953Z,3.30
2022-11-06T06:48:10.980Z,2.75
2022-11-06T06:50:38.680Z,3.70
2022-11-06T06:53:06.129Z,3.40
2022-11-06T06:55:33.900Z,3.42
2022-11-06T06:58:04.013Z,3.60
2022-11-06T07:00:31.654Z,3.70
2022-11-06T07:02:59.648Z,3.70
2022-11-06T07:05:27.150Z,3.67
2022-11-06T07:07:54.853Z,3.55
2022-11-06T07:10:22.648Z,3.33
2022-11-06T07:12:50.527Z,3.45
2022-11-06T07:15:18.299Z,3.97
2022-11-06T07:17:46.088Z,3.62
2022-11-06T07:20:13.603Z,3.80
2022-11-06T07:22:41.072Z,3.40
2022-11-06T07:25:09.090Z,3.55
2022-11-06T07:27:41.457Z,3.10
2022-11-06T07:30:09.752Z,3.35
2022-11-06T07:32:37.298Z,3.60
2022-11-06T07:35:05.518Z,2.90
2022-11-06T07:37:33.575Z,3.25
2022-11-06T07:40:01.282Z,3.45
2022-11-06T07:42:28.998Z,3.62
2022-11-06T07:44:57.255Z,3.83
2022-11-06T07:47:24.841Z,3.43
2022-11-06T07:49:53.599Z,3.90
2022-11-06T07:52:21.433Z,3.35
2022-11-06T07:54:48.972Z,3.50
2022-11-06T07:57:16.451Z,5.20
2022-11-06T07:59:44.259Z,8.60
2022-11-06T08:02:13.101Z,19.52
2022-11-06T08:04:41.260Z,13.13
2022-11-06T08:07:08.852Z,5.80
2022-11-06T08:09:36.556Z,3.95
2022-11-06T08:12:04.574Z,6.43
2022-11-06T08:14:32.121Z,3.25
2022-11-06T08:16:59.603Z,4.65
2022-11-06T08:19:27.460Z,6.40
2022-11-06T08:21:54.918Z,4.37
2022-11-06T08:24:22.429Z,4.77
2022-11-06T08:26:50.366Z,5.40
2022-11-06T08:29:17.920Z,5.43
2022-11-06T08:31:45.446Z,6.72
2022-11-06T08:34:13.206Z,4.05
2022-11-06T08:36:52.088Z,4.40
2022-11-06T08:39:19.852Z,5.37
2022-11-06T08:41:47.364Z,4.03
2022-11-06T08:44:14.976Z,4.05
2022-11-06T08:46:45.403Z,5.68
2022-11-06T08:49:16.822Z,5.37
2022-11-06T08:51:44.656Z,3.95
2022-11-06T08:54:12.425Z,4.25
2022-11-06T08:56:40.063Z,4.85
2022-11-06T08:59:07.910Z,5.05
2022-11-06T09:01:35.563Z,3.60
2022-11-06T09:04:03.267Z,6.18
2022-11-06T09:06:31.109Z,6.72
2022-11-06T09:08:58.589Z,5.85
2022-11-06T09:11:26.391Z,6.82
2022-11-06T09:13:54.171Z,6.17
2022-11-06T09:16:21.677Z,5.55
2022-11-06T09:18:49.152Z,4.05
2022-11-06T09:21:19.925Z,4.32
2022-11-06T09:23:48.663Z,4.30
2022-11-06T09:26:16.735Z,5.00
2022-11-06T09:28:44.584Z,9.15
2022-11-06T09:31:12.641Z,7.03
2022-11-06T09:33:40.121Z,4.97
2022-11-06T09:36:08.287Z,4.93
2022-11-06T09:38:36.421Z,5.17
2022-11-06T09:41:04.449Z,4.40
2022-11-06T09:44:09.650Z,3.62
2022-11-06T09:46:45.884Z,3.80
2022-11-06T09:49:17.025Z,3.17
2022-11-06T09:51:56.895Z,3.73
2022-11-06T09:54:37.203Z,3.85
2022-11-06T09:57:11.551Z,3.22
2022-11-06T09:59:41.521Z,3.62
2022-11-06T10:02:41.191Z,4.22
2022-11-06T10:05:18.467Z,5.47
2022-11-06T10:07:46.154Z,5.55
2022-11-06T10:10:17.716Z,7.07
2022-11-06T10:13:26.632Z,5.57
2022-11-06T10:17:01.122Z,4.87
2022-11-06T10:19:39.492Z,4.40
2022-11-06T10:22:16.552Z,6.18
2022-11-06T10:24:44.076Z,4.35
2022-11-06T10:27:19.774Z,4.82
2022-11-06T10:29:57.407Z,5.00
2022-11-06T10:32:56.112Z,5.30
2022-11-06T10:35:35.970Z,7.10
2022-11-06T10:38:12.276Z,7.68
2022-11-06T10:40:57.696Z,4.15
2022-11-06T10:43:36.317Z,5.07
2022-11-06T10:46:12.580Z,4.23
2022-11-06T10:48:44.117Z,4.50
2022-11-06T10:51:29.537Z,4.72
2022-11-06T10:54:12.104Z,5.82
2022-11-06T10:57:09.404Z,4.45
2022-11-06T10:59:37.254Z,4.17
2022-11-06T11:02:05.579Z,5.03
2022-11-06T11:04:33.234Z,4.93
2022-11-06T11:07:18.820Z,4.65
2022-11-06T11:09:52.143Z,4.37
2022-11-06T11:12:25.634Z,4.40
2022-11-06T11:15:05.604Z,6.03
2022-11-06T11:17:33.407Z,4.78
2022-11-06T11:20:02.208Z,4.82
2022-11-06T11:22:33.143Z,23.45
2022-11-06T11:25:26.990Z,6.33
2022-11-06T11:27:55.006Z,6.45
2022-11-06T11:30:29.689Z,19.80
2022-11-06T11:32:57.916Z,5.30
2022-11-06T11:35:28.538Z,5.57
2022-11-06T11:38:12.612Z,7.07
2022-11-06T11:40:40.778Z,4.68
2022-11-06T11:43:28.421Z,4.35
2022-11-06T11:46:03.608Z,4.60
2022-11-06T11:48:57.943Z,4.28
2022-11-06T11:51:41.158Z,4.73
2022-11-06T11:54:11.812Z,4.53
2022-11-06T11:57:09.803Z,5.93
2022-11-06T11:59:43.108Z,5.10
2022-11-06T12:02:27.558Z,5.10
2022-11-06T12:05:08.156Z,6.30
2022-11-06T12:07:40.788Z,6.40
2022-11-06T12:10:23.195Z,6.30
2022-11-06T12:12:51.910Z,7.00
2022-11-06T12:15:27.575Z,5.87
2022-11-06T12:17:59.812Z,6.70
2022-11-06T12:20:41.877Z,5.05
2022-11-06T12:23:16.553Z,7.40
2022-11-06T12:25:50.357Z,8.10
2022-11-06T12:28:18.889Z,7.03
2022-11-06T12:31:00.322Z,5.57
2022-11-06T12:34:00.016Z,5.25
2022-11-06T12:36:19.034Z,5.00
2022-11-06T12:38:49.891Z,4.95
2022-11-06T12:41:30.766Z,5.50
2022-11-06T12:44:00.023Z,4.73
2022-11-06T12:46:43.055Z,5.12
2022-11-06T12:49:19.644Z,5.80
2022-11-06T12:52:01.302Z,5.82
2022-11-06T12:54:55.373Z,4.72
2022-11-06T12:57:51.435Z,6.00
2022-11-06T13:00:21.474Z,5.35
2022-11-06T13:03:11.217Z,5.55
2022-11-06T13:05:41.056Z,4.95
2022-11-06T13:08:18.353Z,5.40
2022-11-06T13:11:07.610Z,6.10
2022-11-06T13:13:44.127Z,5.43
2022-11-06T13:16:34.883Z,4.85
2022-11-06T13:19:32.286Z,5.12
2022-11-06T13:22:18.835Z,6.18
2022-11-06T13:24:58.594Z,5.73
2022-11-06T13:27:32.206Z,5.95
2022-11-06T13:30:06.221Z,5.62
2022-11-06T13:32:36.041Z,7.95
2022-11-06T13:35:04.167Z,6.45
2022-11-06T13:37:43.028Z,6.17
2022-11-06T13:40:30.852Z,6.12
2022-11-06T13:43:10.660Z,6.32
2022-11-06T13:45:59.684Z,8.35
2022-11-06T13:48:44.191Z,8.32
2022-11-06T13:51:17.420Z,12.03
2022-11-06T13:54:23.848Z,7.60
2022-11-06T13:57:17.759Z,6.35
2022-11-06T14:00:10.549Z,9.25
2022-11-06T14:02:58.702Z,10.85
2022-11-06T14:05:42.329Z,11.50
2022-11-06T14:08:17.839Z,8.30
2022-11-06T14:11:07.008Z,6.10
2022-11-06T14:13:35.498Z,6.30
2022-11-06T14:16:07.516Z,6.43
2022-11-06T14:18:35.589Z,7.67
2022-11-06T14:21:28.253Z,8.20
2022-11-06T14:24:06.327Z,15.13
2022-11-06T14:26:52.217Z,15.77
2022-11-06T14:29:25.882Z,13.85
2022-11-06T14:32:06.490Z,14.03
2022-11-06T14:34:37.403Z,11.98
2022-11-06T14:37:20.094Z,10.00
2022-11-06T14:39:51.463Z,7.78
2022-11-06T14:42:31.422Z,8.52
2022-11-06T14:45:00.847Z,7.57
2022-11-06T14:47:36.890Z,7.03
2022-11-06T14:50:19.584Z,6.93
2022-11-06T14:53:00.895Z,6.15
2022-11-06T14:55:40.614Z,6.87
2022-11-06T14:58:18.900Z,7.67
2022-11-06T15:01:11.192Z,6.53
2022-11-06T15:04:00.110Z,7.37
2022-11-06T15:06:39.010Z,6.18
2022-11-06T15:09:11.747Z,6.12
2022-11-06T15:11:47.411Z,6.40
2022-11-06T15:14:15.519Z,7.22
2022-11-06T15:16:47.341Z,7.55
2022-11-06T15:19:31.955Z,8.13
2022-11-06T15:22:33.812Z,7.10
2022-11-06T15:25:20.009Z,8.23
2022-11-06T15:27:55.248Z,7.68
2022-11-06T15:30:22.841Z,6.68
2022-11-06T15:32:53.050Z,6.82
2022-11-06T15:35:26.154Z,7.25
2022-11-06T15:37:57.955Z,6.87
2022-11-06T15:40:29.017Z,11.40
2022-11-06T15:43:00.122Z,7.05
2022-11-06T15:45:29.147Z,7.05
2022-11-06T15:48:02.371Z,6.82
2022-11-06T15:50:35.569Z,7.63
2022-11-06T15:53:12.835Z,8.05
2022-11-06T15:55:45.373Z,8.55
2022-11-06T15:58:19.390Z,8.88
2022-11-06T16:00:47.054Z,9.77
2022-11-06T16:03:17.434Z,9.80
2022-11-06T16:05:46.620Z,7.45
2022-11-06T16:08:15.316Z,6.50
2022-11-06T16:10:45.194Z,6.10
2022-11-06T16:13:15.033Z,7.00
2022-11-06T16:15:46.922Z,7.70
2022-11-06T16:18:17.401Z,8.85
2022-11-06T16:20:51.187Z,16.67
2022-11-06T16:23:23.176Z,17.05
2022-11-06T16:26:07.085Z,22.37
2022-11-06T16:28:34.909Z,25.63
2022-11-06T16:31:10.920Z,30.48
2022-11-06T16:33:38.549Z,20.55
2022-11-06T16:36:08.781Z,22.27
2022-11-06T16:38:42.309Z,20.15
2022-11-06T16:41:12.360Z,18.90
2022-11-06T16:43:39.982Z,19.77
2022-11-06T16:46:08.503Z,17.73
2022-11-06T16:48:41.526Z,36.42
2022-11-06T16:51:12.081Z,36.67
2022-11-06T16:53:55.871Z,20.90
2022-11-06T16:56:29.141Z,20.02
2022-11-06T16:59:04.031Z,16.67
2022-11-06T17:01:40.914Z,16.45
2022-11-06T17:04:20.435Z,17.15
2022-11-06T17:06:48.436Z,20.67
2022-11-06T17:09:22.940Z,16.27
2022-11-06T17:11:58.361Z,14.87
2022-11-06T17:14:26.836Z,15.40
2022-11-06T17:16:57.939Z,12.93
2022-11-06T17:19:27.194Z,11.87
2022-11-06T17:21:55.571Z,15.25
2022-11-06T17:24:38.657Z,28.67
2022-11-06T17:27:06.716Z,35.13
2022-11-06T17:29:36.545Z,24.45
2022-11-06T17:32:04.777Z,24.80
2022-11-06T17:34:32.718Z,37.15
2022-11-06T17:37:00.424Z,44.97
2022-11-06T17:39:27.992Z,35.42
2022-11-06T17:41:55.943Z,19.15
2022-11-06T17:44:23.627Z,18.33
2022-11-06T17:46:51.588Z,18.10
2022-11-06T17:49:19.310Z,19.62
2022-11-06T17:51:50.589Z,17.17
2022-11-06T17:54:20.488Z,19.98
2022-11-06T17:56:49.954Z,17.63
2022-11-06T17:59:17.695Z,16.25
2022-11-06T18:01:47.878Z,14.13
2022-11-06T18:04:16.470Z,12.60
2022-11-06T18:06:46.095Z,12.70
2022-11-06T18:09:14.828Z,12.73
2022-11-06T18:11:43.045Z,13.73
2022-11-06T18:14:12.870Z,14.80
2022-11-06T18:16:43.939Z,13.73
2022-11-06T18:19:15.813Z,14.20
2022-11-06T18:21:43.807Z,14.27
2022-11-06T18:24:11.465Z,14.38
2022-11-06T18:26:40.098Z,15.07
2022-11-06T18:29:08.375Z,15.63
2022-11-06T18:31:36.230Z,13.80
2022-11-06T18:34:05.404Z,14.40
2022-11-06T18:36:35.088Z,16.92
2022-11-06T18:39:04.863Z,24.67
2022-11-06T18:41:33.295Z,22.92
2022-11-06T18:44:01.593Z,22.55
2022-11-06T18:46:30.307Z,22.20
2022-11-06T18:48:58.905Z,19.67
2022-11-06T18:51:37.867Z,20.15
2022-11-06T18:54:08.091Z,20.12
2022-11-06T18:56:37.355Z,22.15
2022-11-06T18:59:07.111Z,23.37
2022-11-06T19:01:35.369Z,26.42
2022-11-06T19:04:04.496Z,23.52
2022-11-06T19:06:32.722Z,26.40
2022-11-06T19:09:00.569Z,26.87
2022-11-06T19:11:32.567Z,26.37
2022-11-06T19:14:00.651Z,26.15
2022-11-06T19:16:28.388Z,29.25
2022-11-06T19:21:30.520Z,28.98
2022-11-06T19:24:04.704Z,30.00
2022-11-06T19:26:35.325Z,29.75
2022-11-06T19:29:05.429Z,30.58
2022-11-06T19:31:34.424Z,29.95
2022-11-06T19:34:04.846Z,38.47
2022-11-06T19:36:32.720Z,37.03
2022-11-06T19:39:00.837Z,35.90
2022-11-06T19:41:28.761Z,37.47
2022-11-06T19:43:56.829Z,35.67
2022-11-06T19:46:28.540Z,26.33
2022-11-06T19:48:59.115Z,23.30
2022-11-06T19:51:26.621Z,24.75
2022-11-06T19:53:54.608Z,25.02
2022-11-06T19:56:22.712Z,22.55
2022-11-06T19:58:52.513Z,22.33
2022-11-06T20:01:21.643Z,19.67
2022-11-06T20:03:49.827Z,18.42
2022-11-06T20:06:17.926Z,18.77
2022-11-06T20:08:50.350Z,18.58
2022-11-06T20:11:18.639Z,17.83
2022-11-06T20:13:47.002Z,17.40
2022-11-06T20:16:20.161Z,19.85
2022-11-06T20:18:52.421Z,20.08
2022-11-06T20:21:21.444Z,18.10
2022-11-06T20:23:49.729Z,19.02
2022-11-06T20:26:18.724Z,19.33
2022-11-06T20:28:51.350Z,19.27
2022-11-06T20:31:19.809Z,19.83
2022-11-06T20:33:48.325Z,20.33
2022-11-06T20:36:23.136Z,21.05
2022-11-06T20:38:53.055Z,26.77
2022-11-06T20:41:21.913Z,29.25
2022-11-06T20:43:49.800Z,22.83
2022-11-06T20:46:17.596Z,22.77
2022-11-06T20:48:45.694Z,26.65
2022-11-06T20:51:16.520Z,25.03
2022-11-06T20:53:44.430Z,24.92
2022-11-06T20:56:15.413Z,24.42
2022-11-06T20:58:43.834Z,26.40
2022-11-06T21:01:18.207Z,24.98
2022-11-06T21:03:47.913Z,23.33
2022-11-06T21:06:16.602Z,25.65
2022-11-06T21:08:45.896Z,24.52
2022-11-06T21:11:17.254Z,24.65
2022-11-06T21:13:47.032Z,24.00
2022-11-06T21:16:21.074Z,23.60
2022-11-06T21:18:49.144Z,23.30
2022-11-06T21:21:21.135Z,27.92
2022-11-06T21:23:49.653Z,24.73
2022-11-06T21:26:27.492Z,23.08
2022-11-06T21:28:56.130Z,22.87
2022-11-06T21:31:26.188Z,18.23
2022-11-06T21:33:55.979Z,14.85
2022-11-06T21:36:35.043Z,14.93
2022-11-06T21:39:05.659Z,11.82
2022-11-06T21:41:34.493Z,15.57
2022-11-06T21:44:03.529Z,11.80
2022-11-06T21:46:31.336Z,11.35
2022-11-06T21:48:59.464Z,13.15
2022-11-06T21:51:32.241Z,12.20
2022-11-06T21:54:18.964Z,12.60
2022-11-06T21:56:50.854Z,11.50
2022-11-06T21:59:20.295Z,11.07
2022-11-06T22:01:47.937Z,11.85
2022-11-06T22:04:15.810Z,11.95
2022-11-06T22:06:43.730Z,10.77
2022-11-06T22:09:13.098Z,10.73
2022-11-06T22:11:42.928Z,11.12
2022-11-06T22:14:12.985Z,11.75
2022-11-06T22:16:42.439Z,12.95
2022-11-06T22:19:11.238Z,13.97
2022-11-06T22:21:39.475Z,15.70
2022-11-06T22:24:08.149Z,16.20
2022-11-06T22:26:36.281Z,16.65
2022-11-06T22:29:07.411Z,16.37
2022-11-06T22:31:35.644Z,24.00
2022-11-06T22:34:03.811Z,20.60
2022-11-06T22:36:31.516Z,26.12
2022-11-06T22:39:00.723Z,18.25
2022-11-06T22:41:28.262Z,18.45
2022-11-06T22:43:59.768Z,15.33
2022-11-06T22:46:28.602Z,15.70
2022-11-06T22:48:56.137Z,16.05
2022-11-06T22:51:26.237Z,16.33
2022-11-06T22:53:54.617Z,17.00
2022-11-06T22:56:23.472Z,18.13
2022-11-06T22:58:55.767Z,17.15
2022-11-06T23:01:24.669Z,18.05
2022-11-06T23:03:56.688Z,18.50
2022-11-06T23:06:25.524Z,20.88
2022-11-06T23:08:53.559Z,21.10
2022-11-06T23:11:25.254Z,19.10
2022-11-06T23:13:53.516Z,18.50
2022-11-06T23:16:44.163Z,18.95
2022-11-06T23:19:14.293Z,17.70
2022-11-06T23:21:42.335Z,18.33
2022-11-06T23:24:10.523Z,18.02
2022-11-06T23:26:38.386Z,19.15
2022-11-06T23:29:06.065Z,21.00
2022-11-06T23:31:33.550Z,21.15
2022-11-06T23:34:01.333Z,20.30
2022-11-06T23:36:28.779Z,20.75
2022-11-06T23:38:56.453Z,20.08
2022-11-06T23:41:42.582Z,18.98
2022-11-06T23:44:30.023Z,20.75
2022-11-06T23:46:58.249Z,20.07
2022-11-06T23:49:25.889Z,20.55
2022-11-06T23:51:53.415Z,19.40
2022-11-06T23:54:21.206Z,19.95
2022-11-06T23:56:48.703Z,18.50
2022-11-06T23:59:16.319Z,18.07
